sensor_id;sensor_type;location;lat;lon;timestamp;P1;durP1;ratioP1;P2;durP2;ratioP2
15082;SDS011;7640;53.116;6.878;2023-05-24T00:00:01;28.33;;;8.57;;
15082;SDS011;7640;53.116;6.878;2023-05-24T00:02:38;26.90;;;8.50;;
15082;SDS011;7640;53.116;6.878;2023-05-24T00:05:08;28.10;;;8.37;;
15082;SDS011;7640;53.116;6.878;2023-05-24T00:07:37;21.50;;;8.60;;
15082;SDS011;7640;53.116;6.878;2023-05-24T00:10:06;25.90;;;8.50;;
15082;SDS011;7640;53.116;6.878;2023-05-24T00:12:36;25.97;;;8.20;;
15082;SDS011;7640;53.116;6.878;2023-05-24T00:15:06;28.43;;;7.87;;
15082;SDS011;7640;53.116;6.878;2023-05-24T00:17:35;24.13;;;7.10;;
15082;SDS011;7640;53.116;6.878;2023-05-24T00:20:08;26.60;;;7.77;;
15082;SDS011;7640;53.116;6.878;2023-05-24T00:22:39;25.33;;;7.70;;
15082;SDS011;7640;53.116;6.878;2023-05-24T00:25:08;27.30;;;8.30;;
15082;SDS011;7640;53.116;6.878;2023-05-24T00:27:37;29.87;;;7.50;;
15082;SDS011;7640;53.116;6.878;2023-05-24T00:30:06;30.87;;;7.97;;
15082;SDS011;7640;53.116;6.878;2023-05-24T00:32:35;28.90;;;7.80;;
15082;SDS011;7640;53.116;6.878;2023-05-24T00:35:05;23.90;;;8.20;;
15082;SDS011;7640;53.116;6.878;2023-05-24T00:37:35;24.93;;;8.53;;
15082;SDS011;7640;53.116;6.878;2023-05-24T00:40:07;30.90;;;8.77;;
15082;SDS011;7640;53.116;6.878;2023-05-24T00:42:36;31.10;;;8.70;;
15082;SDS011;7640;53.116;6.878;2023-05-24T00:45:06;25.00;;;8.23;;
15082;SDS011;7640;53.116;6.878;2023-05-24T00:47:35;26.30;;;8.47;;
15082;SDS011;7640;53.116;6.878;2023-05-24T00:50:06;27.20;;;7.90;;
15082;SDS011;7640;53.116;6.878;2023-05-24T00:52:37;25.63;;;7.83;;
15082;SDS011;7640;53.116;6.878;2023-05-24T00:55:06;25.70;;;8.50;;
15082;SDS011;7640;53.116;6.878;2023-05-24T00:57:36;29.40;;;8.23;;
15082;SDS011;7640;53.116;6.878;2023-05-24T01:00:06;26.13;;;7.67;;
15082;SDS011;7640;53.116;6.878;2023-05-24T01:02:38;28.13;;;8.13;;
15082;SDS011;7640;53.116;6.878;2023-05-24T01:05:07;28.57;;;8.13;;
15082;SDS011;7640;53.116;6.878;2023-05-24T01:07:40;22.67;;;8.10;;
15082;SDS011;7640;53.116;6.878;2023-05-24T01:10:24;25.23;;;7.47;;
15082;SDS011;7640;53.116;6.878;2023-05-24T01:13:00;23.33;;;7.67;;
15082;SDS011;7640;53.116;6.878;2023-05-24T01:15:38;25.27;;;8.40;;
15082;SDS011;7640;53.116;6.878;2023-05-24T01:18:18;25.10;;;7.70;;
15082;SDS011;7640;53.116;6.878;2023-05-24T01:20:58;22.20;;;7.40;;
15082;SDS011;7640;53.116;6.878;2023-05-24T01:23:43;27.57;;;7.83;;
15082;SDS011;7640;53.116;6.878;2023-05-24T01:26:30;24.23;;;8.03;;
15082;SDS011;7640;53.116;6.878;2023-05-24T01:29:10;25.60;;;7.67;;
15082;SDS011;7640;53.116;6.878;2023-05-24T01:31:40;24.43;;;8.07;;
15082;SDS011;7640;53.116;6.878;2023-05-24T01:34:10;25.40;;;8.20;;
15082;SDS011;7640;53.116;6.878;2023-05-24T01:36:38;27.97;;;8.37;;
15082;SDS011;7640;53.116;6.878;2023-05-24T01:39:07;21.70;;;7.57;;
15082;SDS011;7640;53.116;6.878;2023-05-24T01:41:37;20.43;;;7.37;;
15082;SDS011;7640;53.116;6.878;2023-05-24T01:44:14;27.70;;;7.83;;
15082;SDS011;7640;53.116;6.878;2023-05-24T01:46:56;28.43;;;7.57;;
15082;SDS011;7640;53.116;6.878;2023-05-24T01:49:33;23.13;;;7.57;;
15082;SDS011;7640;53.116;6.878;2023-05-24T01:52:10;31.20;;;8.60;;
15082;SDS011;7640;53.116;6.878;2023-05-24T01:54:47;18.83;;;7.83;;
15082;SDS011;7640;53.116;6.878;2023-05-24T01:57:20;26.37;;;8.40;;
15082;SDS011;7640;53.116;6.878;2023-05-24T01:59:51;25.10;;;7.57;;
15082;SDS011;7640;53.116;6.878;2023-05-24T02:02:22;25.03;;;8.17;;
15082;SDS011;7640;53.116;6.878;2023-05-24T02:04:50;21.33;;;7.80;;
15082;SDS011;7640;53.116;6.878;2023-05-24T02:07:19;24.37;;;7.60;;
15082;SDS011;7640;53.116;6.878;2023-05-24T02:09:47;26.17;;;7.33;;
15082;SDS011;7640;53.116;6.878;2023-05-24T02:12:16;24.30;;;8.50;;
15082;SDS011;7640;53.116;6.878;2023-05-24T02:14:44;25.60;;;8.23;;
15082;SDS011;7640;53.116;6.878;2023-05-24T02:17:17;28.53;;;8.13;;
15082;SDS011;7640;53.116;6.878;2023-05-24T02:19:46;23.63;;;8.17;;
15082;SDS011;7640;53.116;6.878;2023-05-24T02:22:14;21.70;;;8.57;;
15082;SDS011;7640;53.116;6.878;2023-05-24T02:24:43;23.27;;;7.53;;
15082;SDS011;7640;53.116;6.878;2023-05-24T02:27:13;23.93;;;7.47;;
15082;SDS011;7640;53.116;6.878;2023-05-24T02:29:42;25.63;;;8.13;;
15082;SDS011;7640;53.116;6.878;2023-05-24T02:32:13;19.70;;;7.83;;
15082;SDS011;7640;53.116;6.878;2023-05-24T02:34:43;26.23;;;8.03;;
15082;SDS011;7640;53.116;6.878;2023-05-24T02:37:11;21.87;;;7.23;;
15082;SDS011;7640;53.116;6.878;2023-05-24T02:39:40;20.93;;;8.10;;
15082;SDS011;7640;53.116;6.878;2023-05-24T02:42:08;23.90;;;7.20;;
15082;SDS011;7640;53.116;6.878;2023-05-24T02:44:37;21.73;;;7.23;;
15082;SDS011;7640;53.116;6.878;2023-05-24T02:47:08;23.77;;;8.13;;
15082;SDS011;7640;53.116;6.878;2023-05-24T02:49:36;20.87;;;7.67;;
15082;SDS011;7640;53.116;6.878;2023-05-24T02:52:06;23.60;;;7.80;;
15082;SDS011;7640;53.116;6.878;2023-05-24T02:54:35;23.70;;;8.13;;
15082;SDS011;7640;53.116;6.878;2023-05-24T02:57:04;26.37;;;7.13;;
15082;SDS011;7640;53.116;6.878;2023-05-24T02:59:34;27.17;;;7.90;;
15082;SDS011;7640;53.116;6.878;2023-05-24T03:02:03;27.03;;;8.27;;
15082;SDS011;7640;53.116;6.878;2023-05-24T03:04:33;23.57;;;6.50;;
15082;SDS011;7640;53.116;6.878;2023-05-24T03:07:02;26.57;;;6.67;;
15082;SDS011;7640;53.116;6.878;2023-05-24T03:09:33;24.03;;;6.90;;
15082;SDS011;7640;53.116;6.878;2023-05-24T03:12:01;21.33;;;7.10;;
15082;SDS011;7640;53.116;6.878;2023-05-24T03:14:30;20.23;;;5.97;;
15082;SDS011;7640;53.116;6.878;2023-05-24T03:16:58;24.83;;;7.00;;
15082;SDS011;7640;53.116;6.878;2023-05-24T03:19:27;26.03;;;6.07;;
15082;SDS011;7640;53.116;6.878;2023-05-24T03:21:55;17.57;;;6.10;;
15082;SDS011;7640;53.116;6.878;2023-05-24T03:24:24;22.67;;;6.77;;
15082;SDS011;7640;53.116;6.878;2023-05-24T03:26:54;18.30;;;5.93;;
15082;SDS011;7640;53.116;6.878;2023-05-24T03:29:22;18.40;;;5.37;;
15082;SDS011;7640;53.116;6.878;2023-05-24T03:31:51;19.50;;;6.00;;
15082;SDS011;7640;53.116;6.878;2023-05-24T03:34:19;21.50;;;5.63;;
15082;SDS011;7640;53.116;6.878;2023-05-24T03:36:48;18.20;;;5.20;;
15082;SDS011;7640;53.116;6.878;2023-05-24T03:39:16;18.83;;;5.63;;
15082;SDS011;7640;53.116;6.878;2023-05-24T03:41:45;17.00;;;5.40;;
15082;SDS011;7640;53.116;6.878;2023-05-24T03:44:15;22.07;;;6.17;;
15082;SDS011;7640;53.116;6.878;2023-05-24T03:46:45;20.80;;;5.73;;
15082;SDS011;7640;53.116;6.878;2023-05-24T03:49:13;20.13;;;6.23;;
15082;SDS011;7640;53.116;6.878;2023-05-24T03:51:42;20.23;;;5.47;;
15082;SDS011;7640;53.116;6.878;2023-05-24T03:54:10;20.57;;;5.57;;
15082;SDS011;7640;53.116;6.878;2023-05-24T03:56:39;22.63;;;5.77;;
15082;SDS011;7640;53.116;6.878;2023-05-24T03:59:07;18.17;;;5.30;;
15082;SDS011;7640;53.116;6.878;2023-05-24T04:01:38;18.40;;;6.10;;
15082;SDS011;7640;53.116;6.878;2023-05-24T04:04:06;17.47;;;5.37;;
15082;SDS011;7640;53.116;6.878;2023-05-24T04:06:35;17.60;;;5.60;;
15082;SDS011;7640;53.116;6.878;2023-05-24T04:09:07;18.07;;;5.37;;
15082;SDS011;7640;53.116;6.878;2023-05-24T04:11:35;18.67;;;5.13;;
15082;SDS011;7640;53.116;6.878;2023-05-24T04:14:04;17.53;;;5.00;;
15082;SDS011;7640;53.116;6.878;2023-05-24T04:16:33;19.03;;;5.47;;
15082;SDS011;7640;53.116;6.878;2023-05-24T04:19:03;17.23;;;5.23;;
15082;SDS011;7640;53.116;6.878;2023-05-24T04:21:31;16.43;;;5.90;;
15082;SDS011;7640;53.116;6.878;2023-05-24T04:24:02;16.80;;;5.13;;
15082;SDS011;7640;53.116;6.878;2023-05-24T04:26:31;18.00;;;5.00;;
15082;SDS011;7640;53.116;6.878;2023-05-24T04:29:03;13.33;;;5.07;;
15082;SDS011;7640;53.116;6.878;2023-05-24T04:31:33;21.93;;;5.83;;
15082;SDS011;7640;53.116;6.878;2023-05-24T04:34:03;18.47;;;5.23;;
15082;SDS011;7640;53.116;6.878;2023-05-24T04:36:33;18.37;;;5.43;;
15082;SDS011;7640;53.116;6.878;2023-05-24T04:39:02;20.03;;;5.50;;
15082;SDS011;7640;53.116;6.878;2023-05-24T04:41:31;16.97;;;5.43;;
15082;SDS011;7640;53.116;6.878;2023-05-24T04:44:01;19.97;;;6.00;;
15082;SDS011;7640;53.116;6.878;2023-05-24T04:46:30;18.13;;;5.00;;
15082;SDS011;7640;53.116;6.878;2023-05-24T04:49:01;19.47;;;5.57;;
15082;SDS011;7640;53.116;6.878;2023-05-24T04:51:33;17.73;;;5.13;;
15082;SDS011;7640;53.116;6.878;2023-05-24T04:54:04;20.00;;;6.20;;
15082;SDS011;7640;53.116;6.878;2023-05-24T04:56:35;22.40;;;5.73;;
15082;SDS011;7640;53.116;6.878;2023-05-24T04:59:04;16.77;;;5.07;;
15082;SDS011;7640;53.116;6.878;2023-05-24T05:01:35;21.73;;;5.90;;
15082;SDS011;7640;53.116;6.878;2023-05-24T05:04:05;19.37;;;5.43;;
15082;SDS011;7640;53.116;6.878;2023-05-24T05:06:34;23.90;;;5.77;;
15082;SDS011;7640;53.116;6.878;2023-05-24T05:09:05;20.30;;;5.23;;
15082;SDS011;7640;53.116;6.878;2023-05-24T05:11:35;20.13;;;5.30;;
15082;SDS011;7640;53.116;6.878;2023-05-24T05:14:06;17.63;;;5.30;;
15082;SDS011;7640;53.116;6.878;2023-05-24T05:16:35;17.93;;;5.73;;
15082;SDS011;7640;53.116;6.878;2023-05-24T05:19:06;18.43;;;5.50;;
15082;SDS011;7640;53.116;6.878;2023-05-24T05:21:35;20.13;;;5.80;;
15082;SDS011;7640;53.116;6.878;2023-05-24T05:24:05;19.70;;;5.47;;
15082;SDS011;7640;53.116;6.878;2023-05-24T05:26:34;18.33;;;5.43;;
15082;SDS011;7640;53.116;6.878;2023-05-24T05:29:03;17.33;;;5.10;;
15082;SDS011;7640;53.116;6.878;2023-05-24T05:31:31;18.27;;;5.37;;
15082;SDS011;7640;53.116;6.878;2023-05-24T05:34:00;17.37;;;5.17;;
15082;SDS011;7640;53.116;6.878;2023-05-24T05:36:30;22.00;;;5.20;;
15082;SDS011;7640;53.116;6.878;2023-05-24T05:38:59;13.37;;;5.00;;
15082;SDS011;7640;53.116;6.878;2023-05-24T05:41:27;20.57;;;5.93;;
15082;SDS011;7640;53.116;6.878;2023-05-24T05:43:56;15.37;;;5.03;;
15082;SDS011;7640;53.116;6.878;2023-05-24T05:46:24;17.53;;;4.77;;
15082;SDS011;7640;53.116;6.878;2023-05-24T05:48:53;13.23;;;4.60;;
15082;SDS011;7640;53.116;6.878;2023-05-24T05:51:21;16.83;;;4.67;;
15082;SDS011;7640;53.116;6.878;2023-05-24T05:53:51;16.33;;;4.87;;
15082;SDS011;7640;53.116;6.878;2023-05-24T05:56:20;15.10;;;4.77;;
15082;SDS011;7640;53.116;6.878;2023-05-24T05:58:49;20.43;;;5.50;;
15082;SDS011;7640;53.116;6.878;2023-05-24T06:01:17;18.67;;;4.67;;
15082;SDS011;7640;53.116;6.878;2023-05-24T06:03:46;19.23;;;5.07;;
15082;SDS011;7640;53.116;6.878;2023-05-24T06:06:15;15.73;;;4.93;;
15082;SDS011;7640;53.116;6.878;2023-05-24T06:08:44;13.00;;;4.40;;
15082;SDS011;7640;53.116;6.878;2023-05-24T06:11:13;14.47;;;4.60;;
15082;SDS011;7640;53.116;6.878;2023-05-24T06:13:42;20.30;;;5.40;;
15082;SDS011;7640;53.116;6.878;2023-05-24T06:16:10;15.00;;;4.70;;
15082;SDS011;7640;53.116;6.878;2023-05-24T06:18:39;15.30;;;4.90;;
15082;SDS011;7640;53.116;6.878;2023-05-24T06:21:18;14.93;;;4.87;;
15082;SDS011;7640;53.116;6.878;2023-05-24T06:23:48;20.07;;;4.93;;
15082;SDS011;7640;53.116;6.878;2023-05-24T06:26:18;18.20;;;4.67;;
15082;SDS011;7640;53.116;6.878;2023-05-24T06:28:47;16.27;;;4.53;;
15082;SDS011;7640;53.116;6.878;2023-05-24T06:31:17;16.37;;;5.37;;
15082;SDS011;7640;53.116;6.878;2023-05-24T06:33:45;15.40;;;4.60;;
15082;SDS011;7640;53.116;6.878;2023-05-24T06:36:29;15.13;;;4.83;;
15082;SDS011;7640;53.116;6.878;2023-05-24T06:38:59;16.43;;;5.10;;
15082;SDS011;7640;53.116;6.878;2023-05-24T06:41:30;10.77;;;4.00;;
15082;SDS011;7640;53.116;6.878;2023-05-24T06:43:59;19.27;;;4.80;;
15082;SDS011;7640;53.116;6.878;2023-05-24T06:46:27;12.13;;;4.27;;
15082;SDS011;7640;53.116;6.878;2023-05-24T06:48:56;13.97;;;4.40;;
15082;SDS011;7640;53.116;6.878;2023-05-24T06:51:25;14.90;;;4.73;;
15082;SDS011;7640;53.116;6.878;2023-05-24T06:53:54;13.90;;;4.30;;
15082;SDS011;7640;53.116;6.878;2023-05-24T06:56:22;13.43;;;4.47;;
15082;SDS011;7640;53.116;6.878;2023-05-24T06:58:53;11.03;;;4.13;;
15082;SDS011;7640;53.116;6.878;2023-05-24T07:01:22;14.43;;;4.33;;
15082;SDS011;7640;53.116;6.878;2023-05-24T07:03:50;15.70;;;4.90;;
15082;SDS011;7640;53.116;6.878;2023-05-24T07:06:19;9.77;;;3.73;;
15082;SDS011;7640;53.116;6.878;2023-05-24T07:08:48;12.20;;;3.63;;
15082;SDS011;7640;53.116;6.878;2023-05-24T07:11:16;10.67;;;3.50;;
15082;SDS011;7640;53.116;6.878;2023-05-24T07:13:45;10.67;;;3.80;;
15082;SDS011;7640;53.116;6.878;2023-05-24T07:16:14;10.20;;;3.90;;
15082;SDS011;7640;53.116;6.878;2023-05-24T07:18:43;11.17;;;4.23;;
15082;SDS011;7640;53.116;6.878;2023-05-24T07:21:12;11.87;;;4.27;;
15082;SDS011;7640;53.116;6.878;2023-05-24T07:23:43;11.80;;;4.17;;
15082;SDS011;7640;53.116;6.878;2023-05-24T07:26:11;12.07;;;4.10;;
15082;SDS011;7640;53.116;6.878;2023-05-24T07:28:40;11.57;;;3.97;;
15082;SDS011;7640;53.116;6.878;2023-05-24T07:31:08;13.67;;;3.97;;
15082;SDS011;7640;53.116;6.878;2023-05-24T07:33:38;10.23;;;3.83;;
15082;SDS011;7640;53.116;6.878;2023-05-24T07:36:07;13.33;;;3.97;;
15082;SDS011;7640;53.116;6.878;2023-05-24T07:38:36;12.30;;;4.20;;
15082;SDS011;7640;53.116;6.878;2023-05-24T07:41:06;12.10;;;3.70;;
15082;SDS011;7640;53.116;6.878;2023-05-24T07:43:34;9.00;;;3.67;;
15082;SDS011;7640;53.116;6.878;2023-05-24T07:46:03;12.23;;;3.93;;
15082;SDS011;7640;53.116;6.878;2023-05-24T07:48:35;12.03;;;3.37;;
15082;SDS011;7640;53.116;6.878;2023-05-24T07:51:06;9.63;;;3.90;;
15082;SDS011;7640;53.116;6.878;2023-05-24T07:53:35;13.10;;;4.13;;
15082;SDS011;7640;53.116;6.878;2023-05-24T07:56:05;15.87;;;4.23;;
15082;SDS011;7640;53.116;6.878;2023-05-24T07:58:35;16.10;;;3.97;;
15082;SDS011;7640;53.116;6.878;2023-05-24T08:01:06;14.50;;;4.20;;
15082;SDS011;7640;53.116;6.878;2023-05-24T08:03:34;14.30;;;4.20;;
15082;SDS011;7640;53.116;6.878;2023-05-24T08:06:05;13.63;;;4.40;;
15082;SDS011;7640;53.116;6.878;2023-05-24T08:08:35;14.50;;;4.70;;
15082;SDS011;7640;53.116;6.878;2023-05-24T08:11:06;13.47;;;4.30;;
15082;SDS011;7640;53.116;6.878;2023-05-24T08:13:35;13.47;;;3.97;;
15082;SDS011;7640;53.116;6.878;2023-05-24T08:16:04;11.80;;;4.43;;
15082;SDS011;7640;53.116;6.878;2023-05-24T08:18:33;9.50;;;3.70;;
15082;SDS011;7640;53.116;6.878;2023-05-24T08:21:02;10.23;;;4.20;;
15082;SDS011;7640;53.116;6.878;2023-05-24T08:23:35;12.27;;;4.23;;
15082;SDS011;7640;53.116;6.878;2023-05-24T08:26:04;9.33;;;3.93;;
15082;SDS011;7640;53.116;6.878;2023-05-24T08:28:34;11.03;;;4.10;;
15082;SDS011;7640;53.116;6.878;2023-05-24T08:31:03;10.00;;;3.43;;
15082;SDS011;7640;53.116;6.878;2023-05-24T08:33:33;13.13;;;4.20;;
15082;SDS011;7640;53.116;6.878;2023-05-24T08:36:01;11.00;;;3.43;;
15082;SDS011;7640;53.116;6.878;2023-05-24T08:38:30;9.40;;;3.63;;
15082;SDS011;7640;53.116;6.878;2023-05-24T08:41:00;10.70;;;3.27;;
15082;SDS011;7640;53.116;6.878;2023-05-24T08:43:32;10.27;;;4.00;;
15082;SDS011;7640;53.116;6.878;2023-05-24T08:46:01;11.67;;;3.60;;
15082;SDS011;7640;53.116;6.878;2023-05-24T08:48:32;9.57;;;3.83;;
15082;SDS011;7640;53.116;6.878;2023-05-24T08:51:03;11.73;;;3.83;;
15082;SDS011;7640;53.116;6.878;2023-05-24T08:53:32;9.77;;;3.53;;
15082;SDS011;7640;53.116;6.878;2023-05-24T08:56:06;8.27;;;3.10;;
15082;SDS011;7640;53.116;6.878;2023-05-24T08:58:36;9.00;;;3.30;;
15082;SDS011;7640;53.116;6.878;2023-05-24T09:01:05;8.60;;;4.00;;
15082;SDS011;7640;53.116;6.878;2023-05-24T09:03:35;10.90;;;3.80;;
15082;SDS011;7640;53.116;6.878;2023-05-24T09:06:05;9.83;;;3.67;;
15082;SDS011;7640;53.116;6.878;2023-05-24T09:08:36;10.07;;;4.20;;
15082;SDS011;7640;53.116;6.878;2023-05-24T09:11:08;9.87;;;4.17;;
15082;SDS011;7640;53.116;6.878;2023-05-24T09:13:38;11.33;;;3.63;;
15082;SDS011;7640;53.116;6.878;2023-05-24T09:16:06;13.97;;;3.90;;
15082;SDS011;7640;53.116;6.878;2023-05-24T09:18:35;11.00;;;3.80;;
15082;SDS011;7640;53.116;6.878;2023-05-24T09:21:04;8.33;;;3.30;;
15082;SDS011;7640;53.116;6.878;2023-05-24T09:23:33;11.03;;;3.03;;
15082;SDS011;7640;53.116;6.878;2023-05-24T09:26:06;8.37;;;3.40;;
15082;SDS011;7640;53.116;6.878;2023-05-24T09:28:37;10.70;;;3.50;;
15082;SDS011;7640;53.116;6.878;2023-05-24T09:31:07;12.40;;;3.90;;
15082;SDS011;7640;53.116;6.878;2023-05-24T09:33:37;9.23;;;3.80;;
15082;SDS011;7640;53.116;6.878;2023-05-24T09:36:06;10.80;;;3.80;;
15082;SDS011;7640;53.116;6.878;2023-05-24T09:38:36;9.90;;;3.90;;
15082;SDS011;7640;53.116;6.878;2023-05-24T09:41:05;11.40;;;4.33;;
15082;SDS011;7640;53.116;6.878;2023-05-24T09:43:45;7.27;;;3.00;;
15082;SDS011;7640;53.116;6.878;2023-05-24T09:46:15;8.17;;;3.63;;
15082;SDS011;7640;53.116;6.878;2023-05-24T09:48:54;8.20;;;3.50;;
15082;SDS011;7640;53.116;6.878;2023-05-24T09:51:24;11.40;;;3.93;;
15082;SDS011;7640;53.116;6.878;2023-05-24T09:53:55;11.30;;;3.53;;
15082;SDS011;7640;53.116;6.878;2023-05-24T09:56:26;8.80;;;3.87;;
15082;SDS011;7640;53.116;6.878;2023-05-24T09:58:57;7.63;;;3.77;;
15082;SDS011;7640;53.116;6.878;2023-05-24T10:01:33;12.63;;;4.00;;
15082;SDS011;7640;53.116;6.878;2023-05-24T10:04:02;12.33;;;4.13;;
15082;SDS011;7640;53.116;6.878;2023-05-24T10:06:36;10.33;;;3.80;;
15082;SDS011;7640;53.116;6.878;2023-05-24T10:09:12;11.93;;;3.77;;
15082;SDS011;7640;53.116;6.878;2023-05-24T10:11:46;15.30;;;3.83;;
15082;SDS011;7640;53.116;6.878;2023-05-24T10:14:24;12.43;;;4.50;;
15082;SDS011;7640;53.116;6.878;2023-05-24T10:17:06;12.63;;;4.33;;
15082;SDS011;7640;53.116;6.878;2023-05-24T10:19:40;10.53;;;3.57;;
15082;SDS011;7640;53.116;6.878;2023-05-24T10:22:14;10.63;;;4.30;;
15082;SDS011;7640;53.116;6.878;2023-05-24T10:24:52;12.87;;;4.13;;
15082;SDS011;7640;53.116;6.878;2023-05-24T10:27:34;10.20;;;3.80;;
15082;SDS011;7640;53.116;6.878;2023-05-24T10:30:10;11.10;;;3.87;;
15082;SDS011;7640;53.116;6.878;2023-05-24T10:32:50;10.37;;;4.00;;
15082;SDS011;7640;53.116;6.878;2023-05-24T10:35:24;8.40;;;3.37;;
15082;SDS011;7640;53.116;6.878;2023-05-24T10:38:04;10.70;;;3.60;;
15082;SDS011;7640;53.116;6.878;2023-05-24T10:40:40;9.27;;;3.70;;
15082;SDS011;7640;53.116;6.878;2023-05-24T10:43:16;8.40;;;3.30;;
15082;SDS011;7640;53.116;6.878;2023-05-24T10:45:48;9.90;;;3.77;;
15082;SDS011;7640;53.116;6.878;2023-05-24T10:48:31;7.70;;;3.30;;
15082;SDS011;7640;53.116;6.878;2023-05-24T10:54:11;8.07;;;2.93;;
15082;SDS011;7640;53.116;6.878;2023-05-24T10:56:43;8.93;;;3.77;;
15082;SDS011;7640;53.116;6.878;2023-05-24T10:59:22;8.00;;;3.40;;
15082;SDS011;7640;53.116;6.878;2023-05-24T11:01:56;7.77;;;3.30;;
15082;SDS011;7640;53.116;6.878;2023-05-24T11:04:29;8.30;;;3.53;;
15082;SDS011;7640;53.116;6.878;2023-05-24T11:07:00;8.67;;;3.27;;
15082;SDS011;7640;53.116;6.878;2023-05-24T11:09:31;8.50;;;3.40;;
15082;SDS011;7640;53.116;6.878;2023-05-24T11:12:00;8.40;;;3.63;;
15082;SDS011;7640;53.116;6.878;2023-05-24T11:14:35;10.00;;;3.60;;
15082;SDS011;7640;53.116;6.878;2023-05-24T11:17:06;12.63;;;4.33;;
15082;SDS011;7640;53.116;6.878;2023-05-24T11:19:36;9.70;;;3.80;;
15082;SDS011;7640;53.116;6.878;2023-05-24T11:22:12;8.93;;;3.60;;
15082;SDS011;7640;53.116;6.878;2023-05-24T11:24:41;8.93;;;3.40;;
15082;SDS011;7640;53.116;6.878;2023-05-24T11:27:10;9.63;;;3.67;;
15082;SDS011;7640;53.116;6.878;2023-05-24T11:29:41;12.33;;;3.73;;
15082;SDS011;7640;53.116;6.878;2023-05-24T11:32:13;8.87;;;3.90;;
15082;SDS011;7640;53.116;6.878;2023-05-24T11:34:45;6.60;;;3.43;;
15082;SDS011;7640;53.116;6.878;2023-05-24T11:37:14;13.20;;;3.80;;
15082;SDS011;7640;53.116;6.878;2023-05-24T11:39:47;10.03;;;3.97;;
15082;SDS011;7640;53.116;6.878;2023-05-24T11:42:19;12.53;;;3.53;;
15082;SDS011;7640;53.116;6.878;2023-05-24T11:44:51;10.73;;;4.13;;
15082;SDS011;7640;53.116;6.878;2023-05-24T11:47:20;10.17;;;3.90;;
15082;SDS011;7640;53.116;6.878;2023-05-24T11:49:50;12.80;;;3.90;;
15082;SDS011;7640;53.116;6.878;2023-05-24T11:52:18;10.73;;;3.70;;
15082;SDS011;7640;53.116;6.878;2023-05-24T11:54:47;11.07;;;3.90;;
15082;SDS011;7640;53.116;6.878;2023-05-24T11:57:17;10.63;;;4.27;;
15082;SDS011;7640;53.116;6.878;2023-05-24T11:59:54;14.03;;;4.40;;
15082;SDS011;7640;53.116;6.878;2023-05-24T12:02:25;8.80;;;3.73;;
15082;SDS011;7640;53.116;6.878;2023-05-24T12:05:04;7.13;;;3.13;;
15082;SDS011;7640;53.116;6.878;2023-05-24T12:07:35;10.47;;;3.47;;
15082;SDS011;7640;53.116;6.878;2023-05-24T12:10:06;11.23;;;3.77;;
15082;SDS011;7640;53.116;6.878;2023-05-24T12:12:41;12.10;;;3.83;;
15082;SDS011;7640;53.116;6.878;2023-05-24T12:15:13;9.37;;;3.77;;
15082;SDS011;7640;53.116;6.878;2023-05-24T12:17:43;7.47;;;3.47;;
15082;SDS011;7640;53.116;6.878;2023-05-24T12:20:16;11.47;;;3.40;;
15082;SDS011;7640;53.116;6.878;2023-05-24T12:22:47;10.40;;;3.57;;
15082;SDS011;7640;53.116;6.878;2023-05-24T12:25:17;9.53;;;3.87;;
15082;SDS011;7640;53.116;6.878;2023-05-24T12:27:51;8.17;;;3.67;;
15082;SDS011;7640;53.116;6.878;2023-05-24T12:30:23;8.93;;;3.40;;
15082;SDS011;7640;53.116;6.878;2023-05-24T12:32:53;10.03;;;3.17;;
15082;SDS011;7640;53.116;6.878;2023-05-24T12:35:23;10.47;;;3.40;;
15082;SDS011;7640;53.116;6.878;2023-05-24T12:37:56;9.30;;;3.50;;
15082;SDS011;7640;53.116;6.878;2023-05-24T12:40:26;6.20;;;3.03;;
15082;SDS011;7640;53.116;6.878;2023-05-24T12:42:59;8.67;;;3.60;;
15082;SDS011;7640;53.116;6.878;2023-05-24T12:45:30;9.50;;;3.67;;
15082;SDS011;7640;53.116;6.878;2023-05-24T12:47:59;8.27;;;3.77;;
15082;SDS011;7640;53.116;6.878;2023-05-24T12:50:28;9.13;;;3.40;;
15082;SDS011;7640;53.116;6.878;2023-05-24T12:52:57;10.17;;;4.10;;
15082;SDS011;7640;53.116;6.878;2023-05-24T12:55:26;9.03;;;3.97;;
15082;SDS011;7640;53.116;6.878;2023-05-24T12:57:55;11.73;;;3.70;;
15082;SDS011;7640;53.116;6.878;2023-05-24T13:00:27;10.73;;;4.00;;
15082;SDS011;7640;53.116;6.878;2023-05-24T13:02:57;6.17;;;3.20;;
15082;SDS011;7640;53.116;6.878;2023-05-24T13:05:27;10.77;;;4.07;;
15082;SDS011;7640;53.116;6.878;2023-05-24T13:07:56;9.53;;;4.13;;
15082;SDS011;7640;53.116;6.878;2023-05-24T13:10:25;10.53;;;3.50;;
15082;SDS011;7640;53.116;6.878;2023-05-24T13:12:54;10.63;;;3.87;;
15082;SDS011;7640;53.116;6.878;2023-05-24T13:15:22;11.97;;;4.20;;
15082;SDS011;7640;53.116;6.878;2023-05-24T13:17:52;9.20;;;3.83;;
15082;SDS011;7640;53.116;6.878;2023-05-24T13:20:23;14.27;;;4.37;;
15082;SDS011;7640;53.116;6.878;2023-05-24T13:22:52;11.10;;;3.47;;
15082;SDS011;7640;53.116;6.878;2023-05-24T13:25:22;10.80;;;3.67;;
15082;SDS011;7640;53.116;6.878;2023-05-24T13:27:53;12.20;;;3.70;;
15082;SDS011;7640;53.116;6.878;2023-05-24T13:30:22;11.67;;;3.90;;
15082;SDS011;7640;53.116;6.878;2023-05-24T13:32:54;10.60;;;3.77;;
15082;SDS011;7640;53.116;6.878;2023-05-24T13:35:26;11.63;;;3.73;;
15082;SDS011;7640;53.116;6.878;2023-05-24T13:37:59;8.70;;;3.00;;
15082;SDS011;7640;53.116;6.878;2023-05-24T13:40:28;12.47;;;3.93;;
15082;SDS011;7640;53.116;6.878;2023-05-24T13:42:59;10.87;;;3.60;;
15082;SDS011;7640;53.116;6.878;2023-05-24T13:45:29;11.57;;;4.30;;
15082;SDS011;7640;53.116;6.878;2023-05-24T13:47:59;10.10;;;4.20;;
15082;SDS011;7640;53.116;6.878;2023-05-24T13:50:31;9.33;;;3.57;;
15082;SDS011;7640;53.116;6.878;2023-05-24T13:53:02;11.97;;;3.83;;
15082;SDS011;7640;53.116;6.878;2023-05-24T13:55:34;7.47;;;3.67;;
15082;SDS011;7640;53.116;6.878;2023-05-24T13:58:05;8.10;;;3.57;;
15082;SDS011;7640;53.116;6.878;2023-05-24T14:00:35;10.43;;;3.40;;
15082;SDS011;7640;53.116;6.878;2023-05-24T14:03:08;13.80;;;3.90;;
15082;SDS011;7640;53.116;6.878;2023-05-24T14:05:40;10.77;;;3.83;;
15082;SDS011;7640;53.116;6.878;2023-05-24T14:08:10;11.77;;;3.53;;
15082;SDS011;7640;53.116;6.878;2023-05-24T14:10:39;9.30;;;3.90;;
15082;SDS011;7640;53.116;6.878;2023-05-24T14:13:08;9.30;;;3.60;;
15082;SDS011;7640;53.116;6.878;2023-05-24T14:15:57;12.10;;;3.27;;
15082;SDS011;7640;53.116;6.878;2023-05-24T14:18:27;11.53;;;3.43;;
15082;SDS011;7640;53.116;6.878;2023-05-24T14:20:58;8.83;;;3.70;;
15082;SDS011;7640;53.116;6.878;2023-05-24T14:23:27;11.13;;;3.77;;
15082;SDS011;7640;53.116;6.878;2023-05-24T14:26:00;10.63;;;3.93;;
15082;SDS011;7640;53.116;6.878;2023-05-24T14:28:30;8.57;;;3.43;;
15082;SDS011;7640;53.116;6.878;2023-05-24T14:31:07;7.97;;;3.40;;
15082;SDS011;7640;53.116;6.878;2023-05-24T14:33:39;8.10;;;3.43;;
15082;SDS011;7640;53.116;6.878;2023-05-24T14:36:10;10.23;;;3.40;;
15082;SDS011;7640;53.116;6.878;2023-05-24T14:38:39;10.63;;;3.90;;
15082;SDS011;7640;53.116;6.878;2023-05-24T14:41:10;14.47;;;4.23;;
15082;SDS011;7640;53.116;6.878;2023-05-24T14:43:39;9.60;;;3.30;;
15082;SDS011;7640;53.116;6.878;2023-05-24T14:46:09;8.40;;;3.33;;
15082;SDS011;7640;53.116;6.878;2023-05-24T14:48:38;9.07;;;3.20;;
15082;SDS011;7640;53.116;6.878;2023-05-24T14:51:17;9.03;;;3.00;;
15082;SDS011;7640;53.116;6.878;2023-05-24T14:53:47;10.87;;;3.70;;
15082;SDS011;7640;53.116;6.878;2023-05-24T14:56:17;9.23;;;2.83;;
15082;SDS011;7640;53.116;6.878;2023-05-24T14:58:51;8.10;;;2.77;;
15082;SDS011;7640;53.116;6.878;2023-05-24T15:01:21;8.90;;;3.33;;
15082;SDS011;7640;53.116;6.878;2023-05-24T15:03:51;5.67;;;2.73;;
15082;SDS011;7640;53.116;6.878;2023-05-24T15:06:21;6.55;;;2.88;;
15082;SDS011;7640;53.116;6.878;2023-05-24T15:08:50;9.60;;;3.13;;
15082;SDS011;7640;53.116;6.878;2023-05-24T15:11:21;7.03;;;2.97;;
15082;SDS011;7640;53.116;6.878;2023-05-24T15:13:54;7.43;;;3.33;;